sensor_id;sensor_type;location;lat;lon;timestamp;pressure;altitude;pressure_sealevel;temperature;humidity
5284;BME280;15377;48.540;9.268;2024-01-16T00:01:37;96899.25;;;-0.51;100.00
5284;BME280;15377;48.540;9.268;2024-01-16T00:04:03;96908.56;;;-0.52;100.00
5284;BME280;15377;48.540;9.268;2024-01-16T00:06:28;96903.53;;;-0.53;100.00
5284;BME280;15377;48.540;9.268;2024-01-16T00:08:53;96914.00;;;-0.55;100.00
5284;BME280;15377;48.540;9.268;2024-01-16T00:11:19;96909.28;;;-0.51;100.00
5284;BME280;15377;48.540;9.268;2024-01-16T00:13:44;96914.25;;;-0.46;100.00
5284;BME280;15377;48.540;9.268;2024-01-16T00:16:09;96911.59;;;-0.50;100.00
5284;BME280;15377;48.540;9.268;2024-01-16T00:18:35;96908.16;;;-0.50;100.00
5284;BME280;15377;48.540;9.268;2024-01-16T00:21:01;96917.28;;;-0.44;100.00
5284;BME280;15377;48.540;9.268;2024-01-16T00:23:28;96910.84;;;-0.50;100.00
5284;BME280;15377;48.540;9.268;2024-01-16T00:25:53;96908.84;;;-0.46;100.00
5284;BME280;15377;48.540;9.268;2024-01-16T00:28:19;96903.25;;;-0.59;100.00
5284;BME280;15377;48.540;9.268;2024-01-16T00:30:45;96916.31;;;-0.54;100.00
5284;BME280;15377;48.540;9.268;2024-01-16T00:33:10;96916.31;;;-0.54;100.00
5284;BME280;15377;48.540;9.268;2024-01-16T00:35:37;96911.31;;;-0.55;100.00
5284;BME280;15377;48.540;9.268;2024-01-16T00:38:03;96914.69;;;-0.51;100.00
5284;BME280;15377;48.540;9.268;2024-01-16T00:40:28;96917.78;;;-0.49;100.00
5284;BME280;15377;48.540;9.268;2024-01-16T00:42:53;96907.81;;;-0.56;100.00
5284;BME280;15377;48.540;9.268;2024-01-16T00:45:19;96909.72;;;-0.53;100.00
5284;BME280;15377;48.540;9.268;2024-01-16T00:47:44;96908.94;;;-0.53;100.00
5284;BME280;15377;48.540;9.268;2024-01-16T00:50:09;96903.97;;;-0.55;100.00
5284;BME280;15377;48.540;9.268;2024-01-16T00:52:35;96914.00;;;-0.55;100.00
5284;BME280;15377;48.540;9.268;2024-01-16T00:55:00;96915.19;;;-0.56;100.00
5284;BME280;15377;48.540;9.268;2024-01-16T00:57:25;96914.06;;;-0.59;100.00
5284;BME280;15377;48.540;9.268;2024-01-16T00:59:51;96913.28;;;-0.59;100.00
5284;BME280;15377;48.540;9.268;2024-01-16T01:02:17;96924.75;;;-0.52;100.00
5284;BME280;15377;48.540;9.268;2024-01-16T01:04:42;96912.53;;;-0.60;100.00
5284;BME280;15377;48.540;9.268;2024-01-16T01:07:08;96925.50;;;-0.51;100.00
5284;BME280;15377;48.540;9.268;2024-01-16T01:09:33;96904.09;;;-0.62;100.00
5284;BME280;15377;48.540;9.268;2024-01-16T01:11:59;96920.94;;;-0.54;100.00
5284;BME280;15377;48.540;9.268;2024-01-16T01:14:24;96916.78;;;-0.59;100.00
5284;BME280;15377;48.540;9.268;2024-01-16T01:16:51;96915.66;;;-0.61;100.00
5284;BME280;15377;48.540;9.268;2024-01-16T01:19:16;96920.25;;;-0.58;100.00
5284;BME280;15377;48.540;9.268;2024-01-16T01:21:41;96917.16;;;-0.60;100.00
5284;BME280;15377;48.540;9.268;2024-01-16T01:24:07;96912.47;;;-0.56;100.00
5284;BME280;15377;48.540;9.268;2024-01-16T01:26:32;96916.81;;;-0.62;100.00
5284;BME280;15377;48.540;9.268;2024-01-16T01:28:57;96922.56;;;-0.60;100.00
5284;BME280;15377;48.540;9.268;2024-01-16T01:31:23;96920.34;;;-0.65;100.00
5284;BME280;15377;48.540;9.268;2024-01-16T01:33:48;96897.69;;;-0.71;100.00
5284;BME280;15377;48.540;9.268;2024-01-16T01:36:13;96927.22;;;-0.61;100.00
5284;BME280;15377;48.540;9.268;2024-01-16T01:38:39;96926.44;;;-0.61;100.00
5284;BME280;15377;48.540;9.268;2024-01-16T01:41:04;96943.38;;;-0.57;100.00
5284;BME280;15377;48.540;9.268;2024-01-16T01:43:30;96943.84;;;-0.62;100.00
5284;BME280;15377;48.540;9.268;2024-01-16T01:46:18;96948.34;;;-0.56;100.00
5284;BME280;15377;48.540;9.268;2024-01-16T01:48:46;96948.78;;;-0.57;100.00
5284;BME280;15377;48.540;9.268;2024-01-16T01:51:13;96957.34;;;-0.62;100.00
5284;BME280;15377;48.540;9.268;2024-01-16T01:53:42;96943.44;;;-0.61;100.00
5284;BME280;15377;48.540;9.268;2024-01-16T01:56:12;96957.25;;;-0.55;100.00
5284;BME280;15377;48.540;9.268;2024-01-16T01:58:40;96954.88;;;-0.53;100.00
5284;BME280;15377;48.540;9.268;2024-01-16T02:01:08;96948.75;;;-0.54;100.00
5284;BME280;15377;48.540;9.268;2024-01-16T02:03:40;96955.22;;;-0.51;100.00
5284;BME280;15377;48.540;9.268;2024-01-16T02:06:06;96944.91;;;-0.56;100.00
5284;BME280;15377;48.540;9.268;2024-01-16T02:08:32;96958.38;;;-0.53;100.00
5284;BME280;15377;48.540;9.268;2024-01-16T02:10:57;96919.75;;;-0.76;100.00
5284;BME280;15377;48.540;9.268;2024-01-16T02:13:23;96957.19;;;-0.52;100.00
5284;BME280;15377;48.540;9.268;2024-01-16T02:15:49;96961.81;;;-0.52;100.00
5284;BME280;15377;48.540;9.268;2024-01-16T02:18:15;96955.66;;;-0.53;100.00
5284;BME280;15377;48.540;9.268;2024-01-16T02:20:41;96964.91;;;-0.50;100.00
5284;BME280;15377;48.540;9.268;2024-01-16T02:23:07;96955.38;;;-0.58;100.00
5284;BME280;15377;48.540;9.268;2024-01-16T02:25:32;96950.38;;;-0.60;100.00
5284;BME280;15377;48.540;9.268;2024-01-16T02:27:59;96957.94;;;-0.51;100.00
5284;BME280;15377;48.540;9.268;2024-01-16T02:30:25;96951.53;;;-0.61;100.00
5284;BME280;15377;48.540;9.268;2024-01-16T02:32:50;96961.56;;;-0.61;100.00
5284;BME280;15377;48.540;9.268;2024-01-16T02:35:16;96957.28;;;-0.59;100.00
5284;BME280;15377;48.540;9.268;2024-01-16T02:37:43;96951.19;;;-0.63;100.00
5284;BME280;15377;48.540;9.268;2024-01-16T02:40:09;96956.16;;;-0.61;100.00
5284;BME280;15377;48.540;9.268;2024-01-16T02:42:35;96945.84;;;-0.66;100.00
5284;BME280;15377;48.540;9.268;2024-01-16T02:45:02;96956.28;;;-0.68;100.00
5284;BME280;15377;48.540;9.268;2024-01-16T02:47:29;96940.94;;;-0.75;100.00
5284;BME280;15377;48.540;9.268;2024-01-16T02:49:54;96942.88;;;-0.75;100.00
5284;BME280;15377;48.540;9.268;2024-01-16T02:52:19;96936.00;;;-0.80;100.00
5284;BME280;15377;48.540;9.268;2024-01-16T02:54:45;96953.56;;;-0.68;100.00
5284;BME280;15377;48.540;9.268;2024-01-16T02:57:11;96941.78;;;-0.78;100.00
5284;BME280;15377;48.540;9.268;2024-01-16T02:59:36;96956.75;;;-0.73;100.00
5284;BME280;15377;48.540;9.268;2024-01-16T03:02:01;96947.13;;;-0.74;100.00
5284;BME280;15377;48.540;9.268;2024-01-16T03:04:27;96928.47;;;-0.92;100.00
5284;BME280;15377;48.540;9.268;2024-01-16T03:06:53;96948.41;;;-0.82;100.00
5284;BME280;15377;48.540;9.268;2024-01-16T03:09:18;96942.31;;;-0.90;100.00
5284;BME280;15377;48.540;9.268;2024-01-16T03:11:43;96936.97;;;-0.93;100.00
5284;BME280;15377;48.540;9.268;2024-01-16T03:14:09;96948.59;;;-0.96;100.00
5284;BME280;15377;48.540;9.268;2024-01-16T03:16:34;96944.72;;;-0.95;100.00
5284;BME280;15377;48.540;9.268;2024-01-16T03:19:00;96957.06;;;-0.94;100.00
5284;BME280;15377;48.540;9.268;2024-01-16T03:21:26;96950.13;;;-0.95;100.00
5284;BME280;15377;48.540;9.268;2024-01-16T03:23:51;96946.34;;;-1.01;100.00
5284;BME280;15377;48.540;9.268;2024-01-16T03:26:16;96938.59;;;-0.99;100.00
5284;BME280;15377;48.540;9.268;2024-01-16T03:28:42;96943.91;;;-0.92;100.00
5284;BME280;15377;48.540;9.268;2024-01-16T03:31:07;96947.97;;;-1.07;100.00
5284;BME280;15377;48.540;9.268;2024-01-16T03:33:33;96958.84;;;-1.14;100.00
5284;BME280;15377;48.540;9.268;2024-01-16T03:36:07;96945.22;;;-1.34;100.00
5284;BME280;15377;48.540;9.268;2024-01-16T03:38:32;96945.00;;;-1.46;100.00
5284;BME280;15377;48.540;9.268;2024-01-16T03:40:59;96950.03;;;-1.48;100.00
5284;BME280;15377;48.540;9.268;2024-01-16T03:43:24;96947.19;;;-1.68;100.00
5284;BME280;15377;48.540;9.268;2024-01-16T03:45:50;96966.56;;;-1.76;100.00
5284;BME280;15377;48.540;9.268;2024-01-16T03:48:15;96968.91;;;-1.82;100.00
5284;BME280;15377;48.540;9.268;2024-01-16T03:50:40;96955.56;;;-1.92;100.00
5284;BME280;15377;48.540;9.268;2024-01-16T03:53:09;96955.19;;;-1.94;100.00
5284;BME280;15377;48.540;9.268;2024-01-16T03:55:34;96947.63;;;-2.06;100.00
5284;BME280;15377;48.540;9.268;2024-01-16T03:57:59;96946.94;;;-2.17;100.00
5284;BME280;15377;48.540;9.268;2024-01-16T04:00:25;96952.38;;;-2.24;100.00
5284;BME280;15377;48.540;9.268;2024-01-16T04:02:50;96952.47;;;-2.31;100.00
5284;BME280;15377;48.540;9.268;2024-01-16T04:05:15;96945.69;;;-2.46;100.00
5284;BME280;15377;48.540;9.268;2024-01-16T04:07:41;96943.41;;;-2.51;100.00
5284;BME280;15377;48.540;9.268;2024-01-16T04:10:07;96940.75;;;-2.58;100.00
5284;BME280;15377;48.540;9.268;2024-01-16T04:12:32;96944.63;;;-2.59;100.00
5284;BME280;15377;48.540;9.268;2024-01-16T04:14:58;96941.22;;;-2.67;100.00
5284;BME280;15377;48.540;9.268;2024-01-16T04:17:23;96949.34;;;-2.70;100.00
5284;BME280;15377;48.540;9.268;2024-01-16T04:19:48;96953.66;;;-2.83;100.00
5284;BME280;15377;48.540;9.268;2024-01-16T04:22:14;96948.31;;;-2.90;100.00
5284;BME280;15377;48.540;9.268;2024-01-16T04:24:39;96944.91;;;-2.94;100.00
5284;BME280;15377;48.540;9.268;2024-01-16T04:27:04;96944.91;;;-2.94;100.00
5284;BME280;15377;48.540;9.268;2024-01-16T04:29:30;96942.25;;;-3.01;100.00
5284;BME280;15377;48.540;9.268;2024-01-16T04:31:56;96950.66;;;-2.96;100.00
5284;BME280;15377;48.540;9.268;2024-01-16T04:34:21;96939.97;;;-3.06;100.00
5284;BME280;15377;48.540;9.268;2024-01-16T04:36:47;96939.97;;;-3.06;100.00
5284;BME280;15377;48.540;9.268;2024-01-16T04:39:13;96936.16;;;-3.12;100.00
5284;BME280;15377;48.540;9.268;2024-01-16T04:41:38;96945.00;;;-3.15;100.00
5284;BME280;15377;48.540;9.268;2024-01-16T04:44:04;96953.13;;;-3.22;100.00
5284;BME280;15377;48.540;9.268;2024-01-16T04:46:29;96960.91;;;-3.42;100.00
5284;BME280;15377;48.540;9.268;2024-01-16T04:48:55;96950.97;;;-3.48;100.00
5284;BME280;15377;48.540;9.268;2024-01-16T04:51:20;96957.84;;;-3.40;100.00
5284;BME280;15377;48.540;9.268;2024-01-16T04:53:45;96949.34;;;-3.35;100.00
5284;BME280;15377;48.540;9.268;2024-01-16T04:56:11;96941.69;;;-3.37;100.00
5284;BME280;15377;48.540;9.268;2024-01-16T04:58:36;96946.34;;;-3.51;100.00
5284;BME280;15377;48.540;9.268;2024-01-16T05:01:01;96941.09;;;-3.75;100.00
5284;BME280;15377;48.540;9.268;2024-01-16T05:03:27;96938.34;;;-3.61;100.00
5284;BME280;15377;48.540;9.268;2024-01-16T05:05:53;96922.25;;;-3.75;100.00
5284;BME280;15377;48.540;9.268;2024-01-16T05:08:18;96936.50;;;-3.85;100.00
5284;BME280;15377;48.540;9.268;2024-01-16T05:10:43;96926.56;;;-4.02;100.00
5284;BME280;15377;48.540;9.268;2024-01-16T05:13:09;96931.19;;;-3.99;100.00
5284;BME280;15377;48.540;9.268;2024-01-16T05:15:36;96926.97;;;-3.97;100.00
5284;BME280;15377;48.540;9.268;2024-01-16T05:18:02;96929.25;;;-3.99;100.00
5284;BME280;15377;48.540;9.268;2024-01-16T05:20:28;96918.13;;;-4.01;100.00
5284;BME280;15377;48.540;9.268;2024-01-16T05:22:54;96905.88;;;-4.09;100.00
5284;BME280;15377;48.540;9.268;2024-01-16T05:25:20;96912.78;;;-4.08;100.00
5284;BME280;15377;48.540;9.268;2024-01-16T05:27:46;96923.16;;;-4.10;100.00
5284;BME280;15377;48.540;9.268;2024-01-16T05:30:12;96917.41;;;-4.19;100.00
5284;BME280;15377;48.540;9.268;2024-01-16T05:32:37;96910.50;;;-4.16;100.00
5284;BME280;15377;48.540;9.268;2024-01-16T05:35:04;96916.25;;;-4.11;100.00
5284;BME280;15377;48.540;9.268;2024-01-16T05:37:30;96917.06;;;-4.24;100.00
5284;BME280;15377;48.540;9.268;2024-01-16T05:39:55;96899.38;;;-4.22;100.00
5284;BME280;15377;48.540;9.268;2024-01-16T05:42:21;96905.91;;;-4.26;100.00
5284;BME280;15377;48.540;9.268;2024-01-16T05:44:46;96890.94;;;-4.24;100.00
5284;BME280;15377;48.540;9.268;2024-01-16T05:47:12;96905.50;;;-4.14;100.00
5284;BME280;15377;48.540;9.268;2024-01-16T05:49:37;96895.19;;;-4.33;100.00
5284;BME280;15377;48.540;9.268;2024-01-16T05:52:03;96899.81;;;-4.51;100.00
5284;BME280;15377;48.540;9.268;2024-01-16T05:54:28;96897.13;;;-4.51;100.00
5284;BME280;15377;48.540;9.268;2024-01-16T05:56:54;96898.31;;;-4.63;100.00
5284;BME280;15377;48.540;9.268;2024-01-16T05:59:19;96897.91;;;-4.51;100.00
5284;BME280;15377;48.540;9.268;2024-01-16T06:01:44;96890.22;;;-4.38;100.00
5284;BME280;15377;48.540;9.268;2024-01-16T06:04:10;96885.19;;;-4.26;100.00
5284;BME280;15377;48.540;9.268;2024-01-16T06:06:35;96896.31;;;-4.17;100.00
5284;BME280;15377;48.540;9.268;2024-01-16T06:09:01;96884.38;;;-4.12;100.00
5284;BME280;15377;48.540;9.268;2024-01-16T06:11:33;96893.97;;;-4.08;100.00
5284;BME280;15377;48.540;9.268;2024-01-16T06:13:59;96882.16;;;-4.35;100.00
5284;BME280;15377;48.540;9.268;2024-01-16T06:16:25;96889.81;;;-4.30;100.00
5284;BME280;15377;48.540;9.268;2024-01-16T06:18:51;96896.75;;;-4.36;100.00
5284;BME280;15377;48.540;9.268;2024-01-16T06:21:16;96897.50;;;-4.42;100.00
5284;BME280;15377;48.540;9.268;2024-01-16T06:23:43;96904.78;;;-4.32;100.00
5284;BME280;15377;48.540;9.268;2024-01-16T06:26:08;96892.13;;;-4.46;100.00
5284;BME280;15377;48.540;9.268;2024-01-16T06:28:34;96899.81;;;-4.41;100.00
5284;BME280;15377;48.540;9.268;2024-01-16T06:30:59;96905.91;;;-4.30;100.00
5284;BME280;15377;48.540;9.268;2024-01-16T06:33:24;96895.59;;;-4.35;100.00
5284;BME280;15377;48.540;9.268;2024-01-16T06:35:51;96904.75;;;-4.22;100.00
5284;BME280;15377;48.540;9.268;2024-01-16T06:38:16;96896.31;;;-4.17;100.00
5284;BME280;15377;48.540;9.268;2024-01-16T06:40:41;96879.03;;;-4.23;100.00
5284;BME280;15377;48.540;9.268;2024-01-16T06:43:07;96916.97;;;-4.00;100.00
5284;BME280;15377;48.540;9.268;2024-01-16T06:45:32;96911.19;;;-3.95;100.00
5284;BME280;15377;48.540;9.268;2024-01-16T06:47:57;96904.31;;;-3.96;100.00
5284;BME280;15377;48.540;9.268;2024-01-16T06:50:23;96895.09;;;-3.98;100.00
5284;BME280;15377;48.540;9.268;2024-01-16T06:52:48;96899.66;;;-3.88;100.00
5284;BME280;15377;48.540;9.268;2024-01-16T06:55:14;96901.97;;;-3.87;100.00
5284;BME280;15377;48.540;9.268;2024-01-16T06:57:39;96894.63;;;-3.83;100.00
5284;BME280;15377;48.540;9.268;2024-01-16T07:00:05;96901.91;;;-3.76;100.00
5284;BME280;15377;48.540;9.268;2024-01-16T07:02:32;96900.78;;;-3.82;100.00
5284;BME280;15377;48.540;9.268;2024-01-16T07:04:57;96899.63;;;-3.85;100.00
5284;BME280;15377;48.540;9.268;2024-01-16T07:07:23;96909.69;;;-3.96;100.00
5284;BME280;15377;48.540;9.268;2024-01-16T07:09:49;96907.34;;;-3.87;100.00
5284;BME280;15377;48.540;9.268;2024-01-16T07:12:15;96902.34;;;-3.85;100.00
5284;BME280;15377;48.540;9.268;2024-01-16T07:14:40;96896.22;;;-3.89;100.00
5284;BME280;15377;48.540;9.268;2024-01-16T07:17:06;96899.63;;;-3.85;100.00
5284;BME280;15377;48.540;9.268;2024-01-16T07:19:33;96891.94;;;-3.79;100.00
5284;BME280;15377;48.540;9.268;2024-01-16T07:21:58;96907.28;;;-3.73;100.00
5284;BME280;15377;48.540;9.268;2024-01-16T07:24:23;96901.19;;;-3.87;100.00
5284;BME280;15377;48.540;9.268;2024-01-16T07:26:49;96889.72;;;-4.02;100.00
5284;BME280;15377;48.540;9.268;2024-01-16T07:29:15;96905.09;;;-4.06;100.00
5284;BME280;15377;48.540;9.268;2024-01-16T07:31:40;96884.03;;;-4.21;100.00
5284;BME280;15377;48.540;9.268;2024-01-16T07:34:06;96899.78;;;-4.27;100.00
5284;BME280;15377;48.540;9.268;2024-01-16T07:36:31;96876.03;;;-4.53;100.00
5284;BME280;15377;48.540;9.268;2024-01-16T07:38:57;96904.41;;;-4.38;100.00
5284;BME280;15377;48.540;9.268;2024-01-16T07:41:22;96906.69;;;-4.33;100.00
5284;BME280;15377;48.540;9.268;2024-01-16T07:43:48;96909.75;;;-4.24;100.00
5284;BME280;15377;48.540;9.268;2024-01-16T07:46:13;96866.78;;;-4.34;100.00
5284;BME280;15377;48.540;9.268;2024-01-16T07:48:38;96900.47;;;-4.02;100.00
5284;BME280;15377;48.540;9.268;2024-01-16T07:51:04;96906.19;;;-3.89;100.00
5284;BME280;15377;48.540;9.268;2024-01-16T07:53:29;96911.50;;;-3.75;100.00
5284;BME280;15377;48.540;9.268;2024-01-16T07:55:55;96922.59;;;-3.66;100.00
5284;BME280;15377;48.540;9.268;2024-01-16T07:58:21;96907.22;;;-3.63;100.00
5284;BME280;15377;48.540;9.268;2024-01-16T08:00:46;96920.97;;;-3.47;100.00
5284;BME280;15377;48.540;9.268;2024-01-16T08:03:11;96904.84;;;-3.47;100.00
5284;BME280;15377;48.540;9.268;2024-01-16T08:05:37;96915.53;;;-3.36;100.00
5284;BME280;15377;48.540;9.268;2024-01-16T08:08:04;96909.38;;;-3.30;100.00
5284;BME280;15377;48.540;9.268;2024-01-16T08:10:30;96907.75;;;-3.20;100.00
5284;BME280;15377;48.540;9.268;2024-01-16T08:12:55;96911.50;;;-3.04;100.00
5284;BME280;15377;48.540;9.268;2024-01-16T08:15:20;96901.47;;;-3.03;100.00
5284;BME280;15377;48.540;9.268;2024-01-16T08:17:47;96905.63;;;-2.92;100.00
5284;BME280;15377;48.540;9.268;2024-01-16T08:20:12;96899.00;;;-2.80;100.00
5284;BME280;15377;48.540;9.268;2024-01-16T08:22:38;96907.41;;;-2.71;100.00
5284;BME280;15377;48.540;9.268;2024-01-16T08:25:03;96900.06;;;-2.67;100.00
5284;BME280;15377;48.540;9.268;2024-01-16T08:27:32;96912.00;;;-2.68;100.00
5284;BME280;15377;48.540;9.268;2024-01-16T08:29:58;96908.44;;;-2.58;100.00
5284;BME280;15377;48.540;9.268;2024-01-16T08:32:23;96908.09;;;-2.60;100.00
5284;BME280;15377;48.540;9.268;2024-01-16T08:34:48;96899.59;;;-2.55;100.00
5284;BME280;15377;48.540;9.268;2024-01-16T08:37:14;96917.91;;;-2.40;100.00
5284;BME280;15377;48.540;9.268;2024-01-16T08:39:39;96917.19;;;-2.44;100.00
5284;BME280;15377;48.540;9.268;2024-01-16T08:42:05;96914.41;;;-2.37;100.00
5284;BME280;15377;48.540;9.268;2024-01-16T08:44:30;96917.81;;;-2.29;100.00
5284;BME280;15377;48.540;9.268;2024-01-16T08:46:55;96907.81;;;-2.32;100.00
5284;BME280;15377;48.540;9.268;2024-01-16T08:49:22;96931.88;;;-2.11;100.00
5284;BME280;15377;48.540;9.268;2024-01-16T08:51:48;96920.66;;;-2.06;100.00
5284;BME280;15377;48.540;9.268;2024-01-16T08:54:13;96919.78;;;-1.96;100.00
5284;BME280;15377;48.540;9.268;2024-01-16T08:56:38;96931.28;;;-1.89;100.00
5284;BME280;15377;48.540;9.268;2024-01-16T08:59:04;96928.69;;;-1.99;100.00
5284;BME280;15377;48.540;9.268;2024-01-16T09:01:29;96922.19;;;-2.05;100.00
5284;BME280;15377;48.540;9.268;2024-01-16T09:03:55;96920.06;;;-1.87;100.00
5284;BME280;15377;48.540;9.268;2024-01-16T09:06:21;96909.31;;;-1.57;100.00
5284;BME280;15377;48.540;9.268;2024-01-16T09:08:46;96917.16;;;-1.36;100.00
5284;BME280;15377;48.540;9.268;2024-01-16T09:11:12;96910.25;;;-1.14;100.00
5284;BME280;15377;48.540;9.268;2024-01-16T09:13:37;96924.94;;;-0.89;100.00
5284;BME280;15377;48.540;9.268;2024-01-16T09:16:03;96902.00;;;-0.77;100.00
5284;BME280;15377;48.540;9.268;2024-01-16T09:18:29;96899.78;;;-0.36;100.00
5284;BME280;15377;48.540;9.268;2024-01-16T09:20:54;96911.66;;;0.70;100.00
5284;BME280;15377;48.540;9.268;2024-01-16T09:23:20;96916.13;;;1.76;100.00
5284;BME280;15377;48.540;9.268;2024-01-16T09:25:45;96908.28;;;2.39;100.00
5284;BME280;15377;48.540;9.268;2024-01-16T09:28:11;96901.56;;;3.09;100.00
5284;BME280;15377;48.540;9.268;2024-01-16T09:30:37;96910.59;;;3.19;97.56
5284;BME280;15377;48.540;9.268;2024-01-16T09:33:03;96905.66;;;2.89;95.40
5284;BME280;15377;48.540;9.268;2024-01-16T09:35:32;96908.16;;;2.71;97.12
5284;BME280;15377;48.540;9.268;2024-01-16T09:37:57;96907.75;;;2.15;98.41
5284;BME280;15377;48.540;9.268;2024-01-16T09:40:25;96912.38;;;2.02;100.00
5284;BME280;15377;48.540;9.268;2024-01-16T09:42:50;96911.38;;;1.96;100.00
5284;BME280;15377;48.540;9.268;2024-01-16T09:45:19;96913.13;;;2.31;100.00
5284;BME280;15377;48.540;9.268;2024-01-16T09:47:47;96903.25;;;2.25;98.71
5284;BME280;15377;48.540;9.268;2024-01-16T09:50:14;96902.94;;;2.76;100.00
5284;BME280;15377;48.540;9.268;2024-01-16T09:52:41;96890.69;;;3.34;100.00
5284;BME280;15377;48.540;9.268;2024-01-16T09:55:07;96902.41;;;3.56;91.33
5284;BME280;15377;48.540;9.268;2024-01-16T09:57:32;96912.53;;;3.68;90.87
5284;BME280;15377;48.540;9.268;2024-01-16T10:00:00;96912.66;;;3.27;94.50
5284;BME280;15377;48.540;9.268;2024-01-16T10:02:28;96915.41;;;2.61;95.11
5284;BME280;15377;48.540;9.268;2024-01-16T10:04:54;96912.03;;;2.00;98.14
5284;BME280;15377;48.540;9.268;2024-01-16T10:07:20;96887.03;;;1.48;100.00
5284;BME280;15377;48.540;9.268;2024-01-16T10:09:55;96900.91;;;1.18;100.00
5284;BME280;15377;48.540;9.268;2024-01-16T10:12:20;96887.63;;;0.72;100.00
5284;BME280;15377;48.540;9.268;2024-01-16T10:14:46;96899.44;;;0.62;100.00
5284;BME280;15377;48.540;9.268;2024-01-16T10:17:13;96892.44;;;0.65;100.00
5284;BME280;15377;48.540;9.268;2024-01-16T10:19:48;96900.75;;;0.74;100.00
5284;BME280;15377;48.540;9.268;2024-01-16T10:22:20;96903.84;;;0.72;100.00
5284;BME280;15377;48.540;9.268;2024-01-16T10:24:46;96893.81;;;0.73;100.00
5284;BME280;15377;48.540;9.268;2024-01-16T10:27:15;96894.41;;;0.80;100.00
5284;BME280;15377;48.540;9.268;2024-01-16T10:29:54;96887.31;;;0.86;100.00
5284;BME280;15377;48.540;9.268;2024-01-16T10:32:32;96878.53;;;0.98;100.00
5284;BME280;15377;48.540;9.268;2024-01-16T10:35:08;96870.22;;;1.05;100.00
5284;BME280;15377;48.540;9.268;2024-01-16T10:37:48;96873.81;;;1.34;100.00
5284;BME280;15377;48.540;9.268;2024-01-16T10:40:18;96870.13;;;1.57;100.00
5284;BME280;15377;48.540;9.268;2024-01-16T10:42:44;96860.06;;;1.57;100.00
5284;BME280;15377;48.540;9.268;2024-01-16T10:45:18;96867.00;;;1.58;100.00
5284;BME280;15377;48.540;9.268;2024-01-16T10:47:45;96864.47;;;1.51;100.00
5284;BME280;15377;48.540;9.268;2024-01-16T10:50:11;96859.41;;;1.21;100.00
5284;BME280;15377;48.540;9.268;2024-01-16T10:52:47;96854.91;;;1.15;100.00
5284;BME280;15377;48.540;9.268;2024-01-16T10:55:21;96858.47;;;0.96;100.00
5284;BME280;15377;48.540;9.268;2024-01-16T10:57:48;96857.03;;;0.91;100.00
5284;BME280;15377;48.540;9.268;2024-01-16T11:00:18;96853.31;;;1.01;100.00
5284;BME280;15377;48.540;9.268;2024-01-16T11:02:50;96851.78;;;1.16;100.00
5284;BME280;15377;48.540;9.268;2024-01-16T11:05:17;96851.09;;;1.28;100.00
5284;BME280;15377;48.540;9.268;2024-01-16T11:07:43;96851.09;;;1.28;100.00
5284;BME280;15377;48.540;9.268;2024-01-16T11:10:12;96852.25;;;1.59;100.00
5284;BME280;15377;48.540;9.268;2024-01-16T11:12:38;96847.19;;;1.45;100.00
5284;BME280;15377;48.540;9.268;2024-01-16T11:15:08;96863.44;;;1.45;100.00
5284;BME280;15377;48.540;9.268;2024-01-16T11:17:37;96842.31;;;1.40;100.00
5284;BME280;15377;48.540;9.268;2024-01-16T11:20:04;96836.53;;;1.38;100.00
5284;BME280;15377;48.540;9.268;2024-01-16T11:22:38;96836.72;;;1.31;100.00
5284;BME280;15377;48.540;9.268;2024-01-16T11:25:11;96822.47;;;1.27;100.00
5284;BME280;15377;48.540;9.268;2024-01-16T11:27:37;96827.91;;;1.27;100.00
5284;BME280;15377;48.540;9.268;2024-01-16T11:30:08;96828.94;;;1.17;100.00
5284;BME280;15377;48.540;9.268;2024-01-16T11:32:35;96820.47;;;0.99;100.00
5284;BME280;15377;48.540;9.268;2024-01-16T11:35:02;96816.19;;;0.82;100.00
5284;BME280;15377;48.540;9.268;2024-01-16T11:37:29;96814.50;;;0.72;100.00
5284;BME280;15377;48.540;9.268;2024-01-16T11:42:42;96807.53;;;0.55;100.00
5284;BME280;15377;48.540;9.268;2024-01-16T11:45:14;96806.09;;;0.51;100.00
5284;BME280;15377;48.540;9.268;2024-01-16T11:48:13;96785.38;;;0.44;100.00
5284;BME280;15377;48.540;9.268;2024-01-16T11:50:39;96783.75;;;0.47;100.00
5284;BME280;15377;48.540;9.268;2024-01-16T11:53:05;96783.09;;;0.43;100.00
5284;BME280;15377;48.540;9.268;2024-01-16T11:55:32;96773.84;;;0.40;100.00
5284;BME280;15377;48.540;9.268;2024-01-16T12:00:51;96751.88;;;0.38;100.00
5284;BME280;15377;48.540;9.268;2024-01-16T12:03:20;96760.50;;;0.49;100.00
5284;BME280;15377;48.540;9.268;2024-01-16T12:05:56;96752.38;;;0.49;100.00
5284;BME280;15377;48.540;9.268;2024-01-16T12:08:22;96746.88;;;0.53;100.00
5284;BME280;15377;48.540;9.268;2024-01-16T12:10:47;96743.06;;;0.50;100.00
5284;BME280;15377;48.540;9.268;2024-01-16T12:13:13;96743.44;;;0.52;100.00
5284;BME280;15377;48.540;9.268;2024-01-16T12:15:39;96738.50;;;0.47;100.00
5284;BME280;15377;48.540;9.268;2024-01-16T12:18:04;96741.16;;;0.51;100.00
5284;BME280;15377;48.540;9.268;2024-01-16T12:20:31;96738.34;;;0.54;100.00
5284;BME280;15377;48.540;9.268;2024-01-16T12:25:22;96723.97;;;0.57;100.00
5284;BME280;15377;48.540;9.268;2024-01-16T12:28:08;96730.06;;;0.61;100.00
5284;BME280;15377;48.540;9.268;2024-01-16T12:30:37;96721.09;;;0.64;100.00
5284;BME280;15377;48.540;9.268;2024-01-16T12:33:06;96710.59;;;0.66;100.00
5284;BME280;15377;48.540;9.268;2024-01-16T12:35:34;96718.22;;;0.71;100.00
5284;BME280;15377;48.540;9.268;2024-01-16T12:38:04;96702.84;;;0.68;100.00
5284;BME280;15377;48.540;9.268;2024-01-16T12:40:37;96696.22;;;0.69;100.00
5284;BME280;15377;48.540;9.268;2024-01-16T12:43:03;96691.56;;;0.70;100.00
5284;BME280;15377;48.540;9.268;2024-01-16T12:45:30;96686.41;;;0.75;100.00
5284;BME280;15377;48.540;9.268;2024-01-16T12:47:56;96679.47;;;0.74;100.00
5284;BME280;15377;48.540;9.268;2024-01-16T12:50:26;96674.03;;;0.74;100.00
5284;BME280;15377;48.540;9.268;2024-01-16T12:53:09;96676.16;;;0.83;100.00
5284;BME280;15377;48.540;9.268;2024-01-16T12:55:39;96682.34;;;0.83;100.00
5284;BME280;15377;48.540;9.268;2024-01-16T12:58:20;96676.06;;;0.86;100.00
5284;BME280;15377;48.540;9.268;2024-01-16T13:00:48;96672.69;;;0.82;100.00
5284;BME280;15377;48.540;9.268;2024-01-16T13:03:21;96677.59;;;0.87;100.00
5284;BME280;15377;48.540;9.268;2024-01-16T13:05:57;96662.63;;;0.83;100.00
5284;BME280;15377;48.540;9.268;2024-01-16T13:08:23;96661.34;;;0.87;100.00